Data for 11/24/2009

Time Sea-Level Adjusted Pressure Absolute Pressure Temperature Relative Humidity Dew Point   
(mb) (inHg) (mb) (inHg) (C) (F) (%) (C) (F)
00:05 1025 30.27 854 25.22 -5.3 22.4 63 -11.2 11.8
00:10 1025 30.27 854 25.22 -5 22.9 62 -11.1 11.9
00:15 1025 30.27 854 25.22 -5.3 22.5 64 -11.1 12
00:20 1025 30.27 854 25.22 -5.2 22.6 63 -11.2 11.9
00:25 1025 30.27 854 25.22 -5.2 22.7 63 -11.2 11.8
00:30 1025 30.27 854 25.22 -5.4 22.3 64 -11.2 11.8
00:35 1025 30.27 854 25.22 -5.3 22.4 63 -11.3 11.6
00:40 1025 30.27 854 25.22 -5.3 22.4 63 -11.2 11.8
00:45 1025 30.27 854 25.22 -5.4 22.3 63 -11.3 11.7
00:50 1025 30.27 854 25.22 -5.3 22.5 63 -11.3 11.6
00:55 1025 30.27 854 25.22 -5.2 22.6 64 -11 12.2
01:00 1025 30.27 854 25.22 -5.7 21.8 65 -11.2 11.9
01:05 1025 30.27 854 25.22 -5.6 21.9 64 -11.4 11.4
01:10 1025 30.27 854 25.22 -5.1 22.7 62 -11.3 11.7
01:15 1025 30.27 854 25.22 -4.8 23.4 61 -11.2 11.8
01:20 1025 30.27 854 25.22 -5 23 62 -11.2 11.8
01:25 1025 30.27 854 25.22 -5.1 22.9 63 -11.1 12
01:30 1025 30.27 854 25.22 -5.2 22.7 63 -11.2 11.8
01:35 1025 30.27 854 25.22 -4.7 23.5 62 -11 12.2
01:40 1025 30.27 854 25.22 -4.3 24.3 61 -10.7 12.8
01:45 1025 30.27 854 25.22 -4.2 24.4 62 -10.4 13.2
01:50 1025 30.27 854 25.22 -4.7 23.6 62 -10.9 12.3
01:55 1025 30.27 854 25.22 -4.4 24.1 61 -10.9 12.4
02:00 1025 30.27 854 25.22 -3.9 25 59 -10.7 12.7
02:05 1025 30.27 854 25.22 -4 24.8 61 -10.4 13.3
02:10 1025 30.27 854 25.22 -4.2 24.4 62 -10.4 13.3
02:15 1025 30.27 854 25.22 -4.3 24.2 65 -10.1 13.9
02:20 1025 30.27 855 25.25 -4.4 24 63 -10.4 13.3
02:25 1025 30.27 855 25.25 -4.2 24.4 63 -10.2 13.6
02:30 1025 30.27 855 25.25 -4.1 24.5 62 -10.3 13.5
02:35 1025 30.27 855 25.25 -3.8 25.2 64 -9.7 14.6
02:40 1025 30.27 855 25.25 -3.8 25.2 64 -9.6 14.7
02:45 1025 30.27 855 25.25 -4.1 24.7 65 -9.7 14.6
02:50 1025 30.27 855 25.25 -4.2 24.4 66 -9.6 14.8
02:55 1025 30.27 855 25.25 -4.3 24.3 67 -9.5 14.9
03:00 1025 30.27 854 25.22 -4.6 23.8 69 -9.5 15
03:05 1025 30.27 855 25.25 -4.7 23.5 69 -9.6 14.7
03:10 1025 30.27 854 25.22 -4.4 24.1 69 -9.3 15.2
03:15 1025 30.27 854 25.22 -4.1 24.6 67 -9.3 15.2
03:20 1025 30.27 855 25.25 -4 24.7 65 -9.8 14.4
03:25 1025 30.27 854 25.22 -3.7 25.3 66 -9.1 15.6
03:30 1025 30.27 854 25.22 -3.7 25.4 67 -9 15.9
03:35 1025 30.27 854 25.22 -3.6 25.5 64 -9.4 15.1
03:40 1025 30.27 854 25.22 -3.6 25.5 67 -8.8 16.1
03:45 1025 30.27 854 25.22 -3.6 25.6 68 -8.6 16.5
03:50 1025 30.27 854 25.22 -3.6 25.5 67 -8.8 16.1
03:55 1025 30.27 854 25.22 -3.7 25.3 67 -9 15.8
04:00 1025 30.27 854 25.22 -3.8 25.1 67 -9 15.8
04:05 1025 30.27 854 25.22 -4.3 24.2 69 -9.2 15.5
04:10 1025 30.27 854 25.22 -4.5 23.9 67 -9.7 14.5
04:15 1025 30.27 854 25.22 -4.5 24 66 -9.9 14.2
04:20 1025 30.27 854 25.22 -4.2 24.4 64 -10 14.1
04:25 1025 30.27 854 25.22 -4.1 24.6 65 -9.8 14.4
04:30 1025 30.27 854 25.22 -4.2 24.5 65 -9.8 14.3
04:35 1025 30.27 854 25.22 -4.1 24.6 65 -9.8 14.4
04:40 1025 30.27 854 25.22 -4.1 24.7 64 -9.9 14.3
04:45 1025 30.27 854 25.22 -4 24.9 63 -10.1 13.9
04:50 1025 30.27 854 25.22 -4 24.8 64 -9.9 14.2
04:55 1025 30.27 854 25.22 -4.2 24.5 63 -10.2 13.6
05:00 1025 30.27 854 25.22 -3.9 25 63 -10 13.9
05:05 1025 30.27 854 25.22 -4.1 24.6 64 -9.9 14.2
05:10 1025 30.27 854 25.22 -4.4 24.1 65 -9.9 14.2
05:15 1025 30.27 854 25.22 -4.4 24.1 64 -10.2 13.7
05:20 1025 30.27 854 25.22 -4.2 24.5 64 -10.1 13.9
05:25 1025 30.27 854 25.22 -4.2 24.5 64 -10.1 13.9
05:30 1024 30.24 854 25.22 -4.3 24.3 65 -9.9 14.1
05:35 1024 30.24 854 25.22 -4.4 24.1 66 -9.9 14.2
05:40 1024 30.24 854 25.22 -4.7 23.6 67 -9.8 14.3
05:45 1024 30.24 854 25.22 -4.9 23.2 67 -10.1 13.9
05:50 1024 30.24 854 25.22 -4.9 23.2 66 -10.2 13.7
05:55 1024 30.24 854 25.22 -4.7 23.5 65 -10.3 13.5
06:00 1024 30.24 854 25.22 -4.3 24.2 64 -10.1 13.8
06:05 1024 30.24 854 25.22 -4.2 24.5 64 -10 14.1
06:10 1025 30.27 854 25.22 -4.1 24.6 65 -9.8 14.3
06:15 1025 30.27 854 25.22 -4.1 24.5 66 -9.7 14.6
06:20 1025 30.27 854 25.22 -3.9 24.9 65 -9.6 14.8
06:25 1025 30.27 854 25.22 -3.9 24.9 66 -9.5 15
06:30 1025 30.27 854 25.22 -4.2 24.4 66 -9.6 14.7
06:35 1025 30.27 854 25.22 -4.5 23.9 67 -9.7 14.5
06:40 1025 30.27 854 25.22 -4.5 23.9 67 -9.8 14.3
06:45 1025 30.27 854 25.22 -4.3 24.3 65 -9.8 14.3
06:50 1025 30.27 854 25.22 -4.1 24.7 66 -9.5 14.9
06:55 1025 30.27 854 25.22 -4.3 24.3 71 -8.8 16.1
07:00 1025 30.27 854 25.22 -4.8 23.4 75 -8.6 16.4
07:05 1025 30.27 854 25.22 -4.5 23.8 73 -8.7 16.4
07:10 1025 30.27 854 25.22 -4.9 23.1 75 -8.7 16.4
07:15 1025 30.27 854 25.22 -4.9 23.2 74 -8.9 16.1
07:20 1025 30.27 854 25.22 -4.5 24 72 -8.8 16.2
07:25 1025 30.27 854 25.22 -4.1 24.6 71 -8.7 16.3
07:30 1025 30.27 854 25.22 -4 24.7 70 -8.7 16.3
07:35 1025 30.27 854 25.22 -3.7 25.3 69 -8.7 16.4
07:40 1025 30.27 854 25.22 -3.4 25.8 70 -8.2 17.2
07:45 1025 30.27 854 25.22 -3.4 25.8 71 -8.1 17.5
07:50 1025 30.27 854 25.22 -3.5 25.7 70 -8.1 17.4
07:55 1025 30.27 854 25.22 -3.5 25.7 70 -8.2 17.2
08:00 1025 30.27 855 25.25 -3.6 25.6 70 -8.3 17.1
08:05 1025 30.27 855 25.25 -3.5 25.6 70 -8.3 17.1
08:10 1025 30.27 855 25.25 -3.4 25.9 69 -8.3 17.1
08:15 1025 30.27 855 25.25 -3.3 26 70 -8.1 17.5
08:20 1025 30.27 855 25.25 -3.5 25.7 69 -8.3 17
08:25 1025 30.27 854 25.22 -3.6 25.5 70 -8.3 17
08:30 1025 30.27 854 25.22 -3.7 25.4 70 -8.3 17
08:35 1025 30.27 854 25.22 -3.7 25.3 68 -8.7 16.4
08:40 1025 30.27 854 25.22 -3.7 25.4 67 -9 15.8
08:45 1025 30.27 854 25.22 -3.4 25.9 65 -9 15.8
08:50 1025 30.27 854 25.22 -3 26.7 65 -8.6 16.5
08:55 1025 30.27 854 25.22 -2.8 27 63 -8.9 16.1
09:00 1025 30.27 854 25.22 -2.4 27.7 61 -8.8 16.1
09:05 1025 30.27 854 25.22 -2 28.4 60 -8.7 16.3
09:10 1025 30.27 854 25.22 -1.7 28.9 65 -7.5 18.5
09:15 1025 30.27 854 25.22 -1.6 29.1 62 -8.1 17.5
09:20 1025 30.27 854 25.22 -2 28.4 64 -7.9 17.7
09:25 1025 30.27 854 25.22 -2.4 27.8 67 -7.8 18
09:30 1025 30.27 854 25.22 -2.4 27.7 67 -7.8 17.9
09:35 1025 30.27 854 25.22 -2.6 27.3 65 -8.3 17.1
09:40 1025 30.27 854 25.22 -2.7 27.1 65 -8.4 16.8
09:45 1025 30.27 854 25.22 -2.8 27 65 -8.4 16.8
09:50 1025 30.27 854 25.22 -2.4 27.6 65 -8.1 17.5
09:55 1025 30.27 854 25.22 -2.1 28.2 64 -8 17.7
10:00 1025 30.27 854 25.22 -2.1 28.3 64 -7.9 17.8
10:05 1025 30.27 854 25.22 -1.6 29.2 61 -8.1 17.5
10:10 1025 30.27 854 25.22 -1.3 29.6 58 -8.5 16.8
10:15 1025 30.27 854 25.22 -1.2 29.9 59 -8.1 17.4
10:20 1024 30.24 854 25.22 -1 30.3 58 -8.2 17.2
10:25 1025 30.27 854 25.22 -0.7 30.8 56 -8.4 16.8
10:30 1025 30.27 854 25.22 -0.4 31.3 55 -8.4 16.9
10:35 1024 30.24 854 25.22 -0.4 31.4 54 -8.5 16.7
10:40 1024 30.24 854 25.22 -0.2 31.7 53 -8.7 16.3
10:45 1024 30.24 854 25.22 0.1 32.2 51 -8.7 16.3
10:50 1024 30.24 854 25.22 0.3 32.5 53 -8.3 17
10:55 1024 30.24 853 25.19 0.2 32.4 52 -8.5 16.7
11:00 1024 30.24 853 25.19 0.4 32.7 51 -8.7 16.4
11:05 1024 30.24 854 25.22 0.8 33.4 51 -8.4 16.9
11:10 1024 30.24 853 25.19 0.6 33.1 52 -8.2 17.2
11:15 1024 30.24 853 25.19 0.8 33.4 51 -8.4 17
11:20 1024 30.24 853 25.19 0.7 33.2 52 -8.1 17.4
11:25 1024 30.24 853 25.19 0.6 33 53 -8 17.7
11:30 1024 30.24 853 25.19 0.2 32.3 55 -7.9 17.8
11:35 1024 30.24 853 25.19 0.9 33.6 54 -7.3 18.8
11:40 1024 30.24 853 25.19 0.8 33.5 54 -7.4 18.7
11:45 1024 30.24 853 25.19 0.7 33.2 56 -7 19.3
11:50 1024 30.24 854 25.22 0.2 32.4 59 -6.8 19.7
11:55 1024 30.24 854 25.22 0.1 32.2 59 -6.9 19.6
12:00 1024 30.24 854 25.22 0.5 32.8 58 -6.9 19.5
12:05 1024 30.24 854 25.22 0.6 33.1 59 -6.4 20.4
12:10 1024 30.24 854 25.22 0.4 32.8 60 -6.5 20.4
12:15 1024 30.24 854 25.22 0.1 32.2 61 -6.6 20.1
12:20 1025 30.27 854 25.22 -0.5 31.1 62 -6.9 19.5
12:25 1025 30.27 854 25.22 -1.1 30.1 62 -7.4 18.6
12:30 1025 30.27 854 25.22 -0.9 30.4 60 -7.7 18.1
12:35 1025 30.27 854 25.22 -0.9 30.5 61 -7.5 18.5
12:40 1025 30.27 854 25.22 -1 30.2 61 -7.5 18.5
12:45 1024 30.24 854 25.22 -1 30.1 62 -7.4 18.7
12:50 1024 30.24 854 25.22 -1.7 29 64 -7.6 18.3
12:55 1025 30.27 854 25.22 -1.8 28.8 64 -7.7 18.1
13:00 1025 30.27 854 25.22 -1.9 28.5 66 -7.5 18.4
13:05 1024 30.24 854 25.22 -1.6 29.2 62 -8 17.6
13:10 1024 30.24 853 25.19 -2 28.5 66 -7.5 18.5
13:15 1024 30.24 854 25.22 -2.3 27.9 70 -7 19.4
13:20 1024 30.24 854 25.22 -2.2 28 68 -7.3 18.9
13:25 1024 30.24 853 25.19 -1.7 28.9 67 -7.1 19.2
13:30 1024 30.24 854 25.22 -1.1 30.1 61 -7.6 18.3
13:35 1024 30.24 853 25.19 -0.7 30.7 61 -7.3 18.8
13:40 1024 30.24 853 25.19 -0.2 31.6 60 -7 19.4
13:45 1024 30.24 853 25.19 0.1 32.1 60 -6.8 19.8
13:50 1024 30.24 853 25.19 -0 32 62 -6.5 20.3
13:55 1024 30.24 853 25.19 -0.3 31.5 62 -6.7 19.9
14:00 1024 30.24 853 25.19 -0.2 31.7 61 -6.8 19.7
14:05 1024 30.24 853 25.19 0.1 32.1 59 -7.1 19.2
14:10 1024 30.24 853 25.19 0.1 32.2 58 -7.2 19.1
14:15 1024 30.24 853 25.19 -0.1 31.9 58 -7.3 18.9
14:20 1024 30.24 853 25.19 -0.1 31.8 60 -6.9 19.6
14:25 1024 30.24 853 25.19 -0.2 31.7 60 -6.9 19.5
14:30 1024 30.24 853 25.19 -0.3 31.5 63 -6.5 20.3
14:35 1024 30.24 853 25.19 -0.6 31 64 -6.6 20.2
14:40 1024 30.24 853 25.19 -0.5 31.1 62 -7 19.4
14:45 1024 30.24 853 25.19 -0.3 31.4 62 -6.7 19.9
14:50 1024 30.24 853 25.19 -0.1 31.8 64 -6.1 21
14:55 1024 30.24 853 25.19 -0.4 31.3 63 -6.7 20
15:00 1024 30.24 853 25.19 -0.6 30.9 65 -6.4 20.4
15:05 1024 30.24 853 25.19 -0.5 31.1 64 -6.5 20.3
15:10 1024 30.24 853 25.19 -0.2 31.6 63 -6.4 20.4
15:15 1024 30.24 853 25.19 -0.2 31.6 62 -6.6 20.1
15:20 1024 30.24 853 25.19 -0.2 31.6 62 -6.5 20.2
15:25 1024 30.24 853 25.19 -0.2 31.7 64 -6.2 20.8
15:30 1024 30.24 853 25.19 -0.2 31.7 64 -6.1 21
15:35 1024 30.24 853 25.19 -0.2 31.7 64 -6.1 21
15:40 1024 30.24 854 25.22 -0.1 31.8 67 -5.6 21.9
15:45 1024 30.24 854 25.22 -0.2 31.6 67 -5.5 22
15:50 1024 30.24 853 25.19 -0.3 31.5 66 -5.8 21.6
15:55 1024 30.24 853 25.19 -0.1 31.8 67 -5.6 22
16:00 1024 30.24 854 25.22 -0.1 31.8 66 -5.7 21.8
16:05 1024 30.24 854 25.22 0.2 32.3 63 -6.1 20.9
16:10 1024 30.24 854 25.22 0.3 32.6 64 -5.8 21.6
16:15 1024 30.24 853 25.19 0.3 32.5 64 -5.7 21.8
16:20 1024 30.24 854 25.22 0.3 32.5 63 -5.9 21.3
16:25 1024 30.24 854 25.22 0.5 32.8 61 -6.1 20.9
16:30 1024 30.24 854 25.22 0.6 33.1 62 -5.9 21.4
16:35 1024 30.24 854 25.22 0.6 33.1 62 -5.9 21.4
16:40 1024 30.24 853 25.19 0.6 33.1 61 -6 21.2
16:45 1024 30.24 853 25.19 0.8 33.4 61 -5.9 21.4
16:50 1024 30.24 853 25.19 0.8 33.4 62 -5.8 21.6
16:55 1024 30.24 853 25.19 0.8 33.4 63 -5.4 22.3
17:00 1024 30.24 853 25.19 0.7 33.3 64 -5.4 22.3
17:05 1024 30.24 853 25.19 0.4 32.7 63 -5.8 21.6
17:10 1024 30.24 853 25.19 0.3 32.5 63 -5.9 21.4
17:15 1024 30.24 853 25.19 0.3 32.5 64 -5.9 21.5
17:20 1024 30.24 853 25.19 0.2 32.4 66 -5.4 22.2
17:25 1024 30.24 853 25.19 0 32.1 67 -5.4 22.2
17:30 1024 30.24 853 25.19 -0.2 31.7 66 -5.9 21.4
17:35 1024 30.24 853 25.19 -0.2 31.7 66 -5.8 21.6
17:40 1024 30.24 853 25.19 -0 32 64 -6.1 21.1
17:45 1024 30.24 853 25.19 0.2 32.3 66 -5.4 22.3
17:50 1024 30.24 854 25.22 0.1 32.2 66 -5.5 22.1
17:55 1024 30.24 853 25.19 0.3 32.5 65 -5.6 21.9
18:00 1024 30.24 853 25.19 0.5 32.9 66 -5.2 22.6
18:05 1024 30.24 854 25.22 0.7 33.2 65 -5.1 22.9
18:10 1024 30.24 854 25.22 0.6 33.2 66 -4.9 23.2
18:15 1024 30.24 854 25.22 0.6 33.1 66 -5 23
18:20 1025 30.27 854 25.22 0.7 33.3 65 -5.1 22.9
18:25 1024 30.24 854 25.22 0.6 33.1 66 -5 22.9
18:30 1025 30.27 854 25.22 0.5 32.9 66 -5.2 22.7
18:35 1025 30.27 854 25.22 0.3 32.6 67 -5.2 22.7
18:40 1025 30.27 854 25.22 0.4 32.6 68 -4.9 23.1
18:45 1025 30.27 854 25.22 0.4 32.6 68 -4.9 23.2
18:50 1025 30.27 854 25.22 0.3 32.6 67 -5.1 22.9
18:55 1025 30.27 854 25.22 0.1 32.2 68 -5.1 22.8
19:00 1025 30.27 854 25.22 0 32 68 -5.3 22.5
19:05 1025 30.27 854 25.22 0.2 32.4 67 -5.1 22.8
19:10 1025 30.27 854 25.22 0.4 32.8 65 -5.4 22.3
19:15 1025 30.27 854 25.22 0.6 33.1 66 -5.1 22.8
19:20 1025 30.27 854 25.22 0.8 33.4 63 -5.4 22.3
19:25 1025 30.27 854 25.22 0.9 33.7 63 -5.3 22.5
19:30 1025 30.27 854 25.22 1 33.8 64 -5 23
19:35 1025 30.27 854 25.22 1 33.8 63 -5.2 22.6
19:40 1025 30.27 854 25.22 1 33.8 63 -5.2 22.6
19:45 1025 30.27 854 25.22 1 33.8 64 -5 23.1
19:50 1025 30.27 854 25.22 1 33.8 65 -4.9 23.1
19:55 1025 30.27 854 25.22 1 33.8 63 -5.2 22.7
20:00 1025 30.27 854 25.22 0.8 33.4 65 -5.1 22.8
20:05 1026 30.3 855 25.25 0.7 33.2 66 -4.9 23.1
20:10 1026 30.3 855 25.25 0.7 33.3 64 -5.3 22.5
20:15 1026 30.3 855 25.25 0.9 33.7 63 -5.2 22.6
20:20 1026 30.3 855 25.25 1 33.9 63 -5.2 22.6
20:25 1026 30.3 855 25.25 1 33.8 64 -5.1 22.8
20:30 1026 30.3 855 25.25 0.9 33.6 64 -5.1 22.8
20:35 1025 30.27 855 25.25 0.9 33.7 64 -5.1 22.8
20:40 1025 30.27 855 25.25 0.8 33.5 64 -5.2 22.6
20:45 1025 30.27 855 25.25 0.9 33.7 63 -5.3 22.5
20:50 1025 30.27 855 25.25 1 33.9 63 -5.3 22.5
20:55 1026 30.3 855 25.25 1 33.8 63 -5.3 22.4
21:00 1026 30.3 855 25.25 1.1 34 62 -5.4 22.2
21:05 1026 30.3 855 25.25 1.3 34.3 62 -5.3 22.5
21:10 1026 30.3 855 25.25 1.3 34.3 62 -5.2 22.6
21:15 1026 30.3 855 25.25 1.4 34.5 61 -5.2 22.6
21:20 1026 30.3 855 25.25 1.5 34.7 61 -5.3 22.4
21:25 1026 30.3 855 25.25 1.4 34.6 62 -5.1 22.7
21:30 1026 30.3 855 25.25 1.3 34.4 62 -5.2 22.6
21:35 1026 30.3 855 25.25 1.3 34.4 62 -5.1 22.8
21:40 1026 30.3 855 25.25 1.4 34.5 62 -5.2 22.7
21:45 1026 30.3 855 25.25 1.3 34.4 62 -5.1 22.8
21:50 1026 30.3 855 25.25 1.3 34.3 62 -5.1 22.7
21:55 1026 30.3 855 25.25 1.1 33.9 65 -4.8 23.4
22:00 1026 30.3 856 25.28 0.7 33.3 65 -5.2 22.6
22:05 1026 30.3 856 25.28 0.9 33.7 63 -5.3 22.5
22:10 1026 30.3 856 25.28 1.2 34.1 63 -5.1 22.9
22:15 1026 30.3 856 25.28 1.3 34.4 63 -5 22.9
22:20 1026 30.3 855 25.25 1.3 34.4 64 -4.7 23.5
22:25 1026 30.3 855 25.25 1.3 34.4 63 -5 23
22:30 1026 30.3 855 25.25 1.3 34.4 63 -4.9 23.2
22:35 1026 30.3 855 25.25 1.2 34.1 65 -4.7 23.5
22:40 1026 30.3 855 25.25 1 33.8 66 -4.6 23.7
22:45 1026 30.3 855 25.25 0.8 33.5 66 -4.8 23.4
22:50 1026 30.3 855 25.25 0.9 33.5 65 -5 23
22:55 1026 30.3 855 25.25 0.8 33.4 66 -4.9 23.1
23:00 1026 30.3 855 25.25 0.7 33.3 64 -5.4 22.3
23:05 1026 30.3 855 25.25 1 33.7 63 -5.2 22.6
23:10 1026 30.3 855 25.25 0.9 33.6 64 -5.2 22.6
23:15 1026 30.3 856 25.28 0.7 33.3 64 -5.4 22.3
23:20 1026 30.3 855 25.25 0.9 33.5 63 -5.3 22.5
23:25 1026 30.3 856 25.28 0.8 33.4 64 -5.2 22.7
23:30 1026 30.3 856 25.28 0.4 32.6 68 -4.8 23.4
23:35 1026 30.3 856 25.28 0.1 32.2 67 -5.3 22.4
23:40 1026 30.3 856 25.28 0.4 32.8 65 -5.4 22.2
23:45 1026 30.3 856 25.28 0.6 33.2 65 -5.2 22.6
23:50 1026 30.3 856 25.28 0.8 33.4 63 -5.6 22
23:55 1026 30.3 856 25.28 1 33.9 62 -5.4 22.3
24:00 1027 30.33 856 25.28 1.1 33.9 63 -5.3 22.5